Ria Da Coruna — EAGB — position and weather

sailwx.info

Track history (hours):
 
Tides and Currents Weather Stations Pressure Air Temp Water Temp Dewpoint Dewpoint Depression Visibility Wind Speed Wind Dir Waves Ship Positions

Ria Da Coruna

Last reported at 2017-Nov-18 18:03 UTC. Time now 2017-Nov-22 13:12 UTC.
Position N 43°18' W 002°12'.

Length 28 m.

Type: Fishing. MMSI: 224068650.

Date/timePositionNaut miles runAvg speedWind from/ knotsBaromVisibWave heightAir tempDewpointWater temp
2017-Nov-18 18:03N 43°18' W 002°12'0 0.0
2017-Nov-18 18:00N 43°18' W 002°12'3 6.5
2017-Nov-18 17:30N 43°20' W 002°16'5 9.9
2017-Nov-18 17:00N 43°21' W 002°22'5 9.8
2017-Nov-18 16:30N 43°23' W 002°29'5 9.9
2017-Nov-18 16:00N 43°25' W 002°35'5 9.8
2017-Nov-18 15:30N 43°26' W 002°42'1 3.0
2017-Nov-18 15:00N 43°27' W 002°43'3 6.1
2017-Nov-18 14:30N 43°30' W 002°41'0 0.3
2017-Nov-18 14:00N 43°30' W 002°42'0 1.0
2017-Nov-18 13:30N 43°30' W 002°41'0 0.8
2017-Nov-18 13:00N 43°30' W 002°41'0 0.4
2017-Nov-18 12:30N 43°30' W 002°42'0 0.3
2017-Nov-18 12:00N 43°30' W 002°42'0 0.3
2017-Nov-18 11:31N 43°30' W 002°42'1 1.0
2017-Nov-18 11:00N 43°30' W 002°42'1 1.3
2017-Nov-18 10:30N 43°30' W 002°41'0 1.0
2017-Nov-18 10:00N 43°30' W 002°42'0 0.4
2017-Nov-18 09:31N 43°30' W 002°41'1 1.2
2017-Nov-18 09:01N 43°30' W 002°42'1 1.5
2017-Nov-18 08:31N 43°30' W 002°42'0 0.7
2017-Nov-18 08:00N 43°30' W 002°42'2 4.0
2017-Nov-18 07:30N 43°28' W 002°42'3 6.3
2017-Nov-18 07:01N 43°25' W 002°43'0 0.8
2017-Nov-18 06:30N 43°25' W 002°43'5 9.9
2017-Nov-18 06:00N 43°25' W 002°36'611.1
2017-Nov-18 05:30N 43°24' W 002°29'510.9
2017-Nov-18 05:00N 43°22' W 002°21'611.2
2017-Nov-18 04:30N 43°20' W 002°14'2 4.2
2017-Nov-18 04:00N 43°18' W 002°12'0 0.0
2017-Nov-17 18:57N 43°18' W 002°12'0 0.0
2017-Nov-17 18:28N 43°18' W 002°12'0 0.0
2017-Nov-17 17:58N 43°18' W 002°12'0 0.0
2017-Nov-17 17:28N 43°18' W 002°12'0 0.0
2017-Nov-17 17:00N 43°18' W 002°12'0 0.0
2017-Nov-17 16:30N 43°18' W 002°12'0 0.0
2017-Nov-17 15:59N 43°18' W 002°12'0 0.0
2017-Nov-17 15:30N 43°18' W 002°12'0 0.0
2017-Nov-17 15:00N 43°18' W 002°12'0 0.3
2017-Nov-17 14:30N 43°18' W 002°12'0 0.2
2017-Nov-17 14:01N 43°18' W 002°12'0 0.0
2017-Nov-17 13:30N 43°18' W 002°12'0 0.0
2017-Nov-17 13:00N 43°18' W 002°12'0 0.0
2017-Nov-17 12:29N 43°18' W 002°12'0 0.0
2017-Nov-17 11:53N 43°18' W 002°12'0 0.0
2017-Nov-17 11:30N 43°18' W 002°12'0 0.0
2017-Nov-17 10:59N 43°18' W 002°12'0 0.0
2017-Nov-17 06:50N 43°18' W 002°12'0 0.0
2017-Nov-17 06:30N 43°18' W 002°12'1 2.4
2017-Nov-17 06:00N 43°18' W 002°10'5 9.8
2017-Nov-17 05:30N 43°20' W 002°04'5 9.5
2017-Nov-17 05:01N 43°22' W 001°58'5 9.9
2017-Nov-17 04:31N 43°25' W 001°53'4 7.1
2017-Nov-17 04:01N 43°28' W 001°50'0 0.4
2017-Nov-17 03:30N 43°28' W 001°50'0 0.3
2017-Nov-17 03:01N 43°27' W 001°50'0 0.3
2017-Nov-17 02:31N 43°27' W 001°50'0 0.3
2017-Nov-17 02:01N 43°27' W 001°50'0 0.2
2017-Nov-17 01:30N 43°27' W 001°50'0 0.3
2017-Nov-17 01:01N 43°27' W 001°50'3 6.1
2017-Nov-17 00:31N 43°30' W 001°49'510.4
2017-Nov-17 00:01N 43°35' W 001°46'510.5
2017-Nov-16 23:31N 43°40' W 001°43'510.3
2017-Nov-16 23:01N 43°45' W 001°41'510.0
2017-Nov-16 22:30N 43°49' W 001°38'5 9.4
2017-Nov-16 21:59N 43°54' W 001°35'4 9.1
2017-Nov-16 21:30N 43°58' W 001°33'3 5.9
2017-Nov-16 21:00N 44°00' W 001°35'5 9.3
2017-Nov-16 20:30N 43°57' W 001°40'0 0.2
2017-Nov-16 20:01N 43°57' W 001°40'0 0.2
2017-Nov-16 19:31N 43°57' W 001°40'0 0.3
2017-Nov-16 19:01N 43°57' W 001°40'2 3.5
2017-Nov-16 18:31N 43°58' W 001°38'2 4.0
2017-Nov-16 18:01N 43°57' W 001°35'510.5
2017-Nov-16 17:31N 43°52' W 001°38'5 9.9
2017-Nov-16 17:00N 43°48' W 001°40'1010.0
2017-Nov-16 16:01N 43°38' W 001°43'510.0
2017-Nov-16 15:30N 43°33' W 001°44'5 9.8
2017-Nov-16 15:01N 43°28' W 001°46'5 9.6
2017-Nov-16 14:31N 43°24' W 001°47'1 1.0
2017-Nov-16 14:00N 43°23' W 001°48'0 0.0
2017-Nov-16 13:30N 43°23' W 001°48'0 0.0
2017-Nov-16 13:00N 43°23' W 001°48'0 0.0
2017-Nov-16 12:30N 43°23' W 001°48'3 5.5
2017-Nov-16 12:01N 43°26' W 001°46'510.2
2017-Nov-16 11:30N 43°31' W 001°45'510.0
2017-Nov-16 11:01N 43°35' W 001°43'5 9.8
2017-Nov-16 10:31N 43°40' W 001°41'5 9.5
2017-Nov-16 10:00N 43°45' W 001°39'5 9.7
2017-Nov-16 09:31N 43°49' W 001°37'5 9.7
2017-Nov-16 09:00N 43°54' W 001°35'5 9.7
2017-Nov-16 08:31N 43°59' W 001°33'510.0
2017-Nov-16 08:00N 44°03' W 001°31'5 9.6
2017-Nov-16 07:30N 44°08' W 001°28'0 0.3
2017-Nov-16 07:00N 44°08' W 001°28'0 0.2
2017-Nov-16 06:30N 44°08' W 001°28'0 0.3
2017-Nov-16 06:00N 44°08' W 001°28'0 0.9
2017-Nov-16 05:30N 44°08' W 001°29'1 2.8
2017-Nov-16 05:00N 44°09' W 001°29'0 0.3
2017-Nov-16 04:30N 44°09' W 001°29'0 0.4
2017-Nov-16 04:00N 44°09' W 001°28'0 0.4
2017-Nov-16 03:30N 44°10' W 001°28'1 1.6
2017-Nov-16 03:00N 44°09' W 001°29'1 2.4
2017-Nov-16 02:30N 44°09' W 001°31'3 6.9
2017-Nov-16 02:00N 44°05' W 001°33'0 0.1
2017-Nov-16 01:11N 44°05' W 001°33'0 0.2
2017-Nov-16 01:00N 44°05' W 001°33'1 2.2
2017-Nov-16 00:30N 44°06' W 001°33'1 2.8
2017-Nov-16 00:00N 44°07' W 001°32'0 0.2
2017-Nov-15 23:30N 44°07' W 001°31'0 0.0
2017-Nov-15 21:55N 44°07' W 001°31'0 0.2
2017-Nov-15 21:30N 44°07' W 001°31'0 0.1
2017-Nov-15 20:27N 44°07' W 001°31'0 0.2
2017-Nov-15 20:00N 44°07' W 001°32'2 4.0
2017-Nov-15 19:30N 44°06' W 001°33'9 9.7
2017-Nov-15 18:32N 43°58' W 001°40'0 9.7
2017-Nov-15 18:30N 43°58' W 001°40'5 9.5
2017-Nov-15 18:01N 43°54' W 001°45'510.0
2017-Nov-15 17:31N 43°50' W 001°48'5 9.9
2017-Nov-15 17:01N 43°46' W 001°52'5 9.8
2017-Nov-15 16:30N 43°41' W 001°55'510.1
2017-Nov-15 16:01N 43°37' W 001°58'510.2
2017-Nov-15 15:31N 43°32' W 002°02'510.0
2017-Nov-15 15:00N 43°28' W 002°05'510.0
2017-Nov-15 14:31N 43°24' W 002°08'5 9.7
2017-Nov-15 14:01N 43°19' W 002°11'1 2.3
2017-Nov-15 13:31N 43°18' W 002°12'0 0.0
2017-Nov-15 13:00N 43°18' W 002°12'0 0.0
2017-Nov-15 12:31N 43°18' W 002°12'0 0.0
2017-Nov-15 12:00N 43°18' W 002°12'0 0.0
2017-Nov-15 10:29N 43°18' W 002°12'0 0.1
2017-Nov-15 09:43N 43°18' W 002°12'0 0.0
2017-Nov-15 09:29N 43°18' W 002°12'0 0.0
2017-Nov-15 08:40N 43°18' W 002°12'0 0.2
2017-Nov-15 08:26N 43°18' W 002°12'4 8.5
2017-Nov-15 08:00N 43°21' W 002°09'5 9.8
2017-Nov-15 07:30N 43°26' W 002°07'5 9.9
2017-Nov-15 07:01N 43°30' W 002°03'5 9.7
2017-Nov-15 06:31N 43°35' W 002°00'5 9.5
2017-Nov-15 06:01N 43°39' W 001°57'5 9.8
2017-Nov-15 05:30N 43°43' W 001°54'5 9.9
2017-Nov-15 05:01N 43°47' W 001°50'5 9.8
2017-Nov-15 04:31N 43°52' W 001°47'5 9.3
2017-Nov-15 04:01N 43°56' W 001°44'5 9.1
2017-Nov-15 03:29N 44°00' W 001°41'6 9.2
2017-Nov-15 02:48N 44°06' W 001°37'4 9.4
2017-Nov-15 02:22N 44°09' W 001°35'4 9.3
2017-Nov-15 01:58N 44°13' W 001°33'4 8.3
2017-Nov-15 01:30N 44°16' W 001°31'0 0.3
2017-Nov-15 00:53N 44°16' W 001°31'0 0.3
2017-Nov-15 00:30N 44°16' W 001°30'0 0.4
2017-Nov-14 23:45N 44°16' W 001°30'0 0.4
2017-Nov-14 23:29N 44°16' W 001°30'0 0.1
2017-Nov-14 22:58N 44°16' W 001°30'17 5.2
2017-Nov-14 19:38N 43°59' W 001°31'2 9.1
2017-Nov-14 19:23N 43°57' W 001°31'3 8.5
2017-Nov-14 19:00N 43°54' W 001°34'4 8.2
2017-Nov-14 18:31N 43°51' W 001°36'5 9.9
2017-Nov-14 18:01N 43°46' W 001°38'510.2
2017-Nov-14 17:30N 43°41' W 001°39'5 9.9
2017-Nov-14 17:01N 43°36' W 001°41'510.0
2017-Nov-14 16:30N 43°31' W 001°44'5 9.8
2017-Nov-14 16:01N 43°27' W 001°46'4 7.7
2017-Nov-14 15:31N 43°23' W 001°48'0 0.0
2017-Nov-14 15:00N 43°23' W 001°48'0 0.0
2017-Nov-14 14:31N 43°23' W 001°48'1 2.1
2017-Nov-14 14:01N 43°24' W 001°47'611.5
2017-Nov-14 13:31N 43°30' W 001°45'511.0
2017-Nov-14 13:01N 43°35' W 001°45'510.8
2017-Nov-14 12:31N 43°40' W 001°43'510.6
2017-Nov-14 12:01N 43°46' W 001°42'510.7
2017-Nov-14 11:31N 43°51' W 001°40'510.6
2017-Nov-14 11:00N 43°56' W 001°38'1210.6
2017-Nov-14 09:53N 44°08' W 001°34'410.6
2017-Nov-14 09:29N 44°12' W 001°32'1310.7
2017-Nov-14 08:17N 44°24' W 001°29'1 3.2
2017-Nov-14 08:00N 44°25' W 001°28'0 0.2
2017-Nov-14 07:30N 44°25' W 001°28'0 0.2
2017-Nov-14 07:00N 44°25' W 001°28'2 2.8
2017-Nov-14 06:26N 44°25' W 001°26'0 0.3
2017-Nov-14 05:57N 44°25' W 001°26'0 0.1
2017-Nov-14 05:29N 44°25' W 001°26'0 0.1
2017-Nov-14 05:00N 44°25' W 001°26'3 4.5
2017-Nov-14 04:22N 44°28' W 001°25'3 9.2
2017-Nov-14 04:00N 44°31' W 001°25'3 6.3
2017-Nov-14 03:30N 44°28' W 001°26'3 6.5
2017-Nov-14 03:00N 44°24' W 001°26'1 2.2
2017-Nov-14 02:27N 44°23' W 001°26'1 0.6
2017-Nov-14 00:15N 44°24' W 001°25'2 8.8
2017-Nov-13 23:59N 44°26' W 001°24'1 1.8
2017-Nov-13 23:28N 44°27' W 001°24'  
2017-Nov-10 12:32N 43°18' W 002°12'0 0.2
2017-Nov-10 12:30N 43°18' W 002°12'0 0.0
2017-Nov-10 12:00N 43°18' W 002°12'0 0.0
2017-Nov-10 11:28N 43°18' W 002°12'0 0.0
2017-Nov-10 11:00N 43°18' W 002°12'0 0.0
2017-Nov-10 10:30N 43°18' W 002°12'0 0.0
2017-Nov-09 17:43N 43°18' W 002°12'0 0.0
2017-Nov-09 17:30N 43°18' W 002°12'3 5.7
2017-Nov-09 17:00N 43°18' W 002°08'  
Track history (hours):
 
Tides and Currents Weather Stations Pressure Air Temp Water Temp Dewpoint Dewpoint Depression Visibility Wind Speed Wind Dir Waves Ship Positions

Ria Da Coruna

Last reported at 2017-Nov-18 18:03 UTC. Time now 2017-Nov-22 13:12 UTC.
Position N 43°18' W 002°12'.

Length 28 m.

Type: Fishing. MMSI: 224068650.

Date/timePositionNaut miles runAvg speedWind from/ knotsBaromVisibWave heightAir tempDewpointWater temp
2017-Nov-18 18:03N 43°18' W 002°12'0 0.0
2017-Nov-18 18:00N 43°18' W 002°12'3 6.5
2017-Nov-18 17:30N 43°20' W 002°16'5 9.9
2017-Nov-18 17:00N 43°21' W 002°22'5 9.8
2017-Nov-18 16:30N 43°23' W 002°29'5 9.9
2017-Nov-18 16:00N 43°25' W 002°35'5 9.8
2017-Nov-18 15:30N 43°26' W 002°42'1 3.0
2017-Nov-18 15:00N 43°27' W 002°43'3 6.1
2017-Nov-18 14:30N 43°30' W 002°41'0 0.3
2017-Nov-18 14:00N 43°30' W 002°42'0 1.0
2017-Nov-18 13:30N 43°30' W 002°41'0 0.8
2017-Nov-18 13:00N 43°30' W 002°41'0 0.4
2017-Nov-18 12:30N 43°30' W 002°42'0 0.3
2017-Nov-18 12:00N 43°30' W 002°42'0 0.3
2017-Nov-18 11:31N 43°30' W 002°42'1 1.0
2017-Nov-18 11:00N 43°30' W 002°42'1 1.3
2017-Nov-18 10:30N 43°30' W 002°41'0 1.0
2017-Nov-18 10:00N 43°30' W 002°42'0 0.4
2017-Nov-18 09:31N 43°30' W 002°41'1 1.2
2017-Nov-18 09:01N 43°30' W 002°42'1 1.5
2017-Nov-18 08:31N 43°30' W 002°42'0 0.7
2017-Nov-18 08:00N 43°30' W 002°42'2 4.0
2017-Nov-18 07:30N 43°28' W 002°42'3 6.3
2017-Nov-18 07:01N 43°25' W 002°43'0 0.8
2017-Nov-18 06:30N 43°25' W 002°43'5 9.9
2017-Nov-18 06:00N 43°25' W 002°36'611.1
2017-Nov-18 05:30N 43°24' W 002°29'510.9
2017-Nov-18 05:00N 43°22' W 002°21'611.2
2017-Nov-18 04:30N 43°20' W 002°14'2 4.2
2017-Nov-18 04:00N 43°18' W 002°12'0 0.0
2017-Nov-17 18:57N 43°18' W 002°12'0 0.0
2017-Nov-17 18:28N 43°18' W 002°12'0 0.0
2017-Nov-17 17:58N 43°18' W 002°12'0 0.0
2017-Nov-17 17:28N 43°18' W 002°12'0 0.0
2017-Nov-17 17:00N 43°18' W 002°12'0 0.0
2017-Nov-17 16:30N 43°18' W 002°12'0 0.0
2017-Nov-17 15:59N 43°18' W 002°12'0 0.0
2017-Nov-17 15:30N 43°18' W 002°12'0 0.0
2017-Nov-17 15:00N 43°18' W 002°12'0 0.3
2017-Nov-17 14:30N 43°18' W 002°12'0 0.2
2017-Nov-17 14:01N 43°18' W 002°12'0 0.0
2017-Nov-17 13:30N 43°18' W 002°12'0 0.0
2017-Nov-17 13:00N 43°18' W 002°12'0 0.0
2017-Nov-17 12:29N 43°18' W 002°12'0 0.0
2017-Nov-17 11:53N 43°18' W 002°12'0 0.0
2017-Nov-17 11:30N 43°18' W 002°12'0 0.0
2017-Nov-17 10:59N 43°18' W 002°12'0 0.0
2017-Nov-17 06:50N 43°18' W 002°12'0 0.0
2017-Nov-17 06:30N 43°18' W 002°12'1 2.4
2017-Nov-17 06:00N 43°18' W 002°10'5 9.8
2017-Nov-17 05:30N 43°20' W 002°04'5 9.5
2017-Nov-17 05:01N 43°22' W 001°58'5 9.9
2017-Nov-17 04:31N 43°25' W 001°53'4 7.1
2017-Nov-17 04:01N 43°28' W 001°50'0 0.4
2017-Nov-17 03:30N 43°28' W 001°50'0 0.3
2017-Nov-17 03:01N 43°27' W 001°50'0 0.3
2017-Nov-17 02:31N 43°27' W 001°50'0 0.3
2017-Nov-17 02:01N 43°27' W 001°50'0 0.2
2017-Nov-17 01:30N 43°27' W 001°50'0 0.3
2017-Nov-17 01:01N 43°27' W 001°50'3 6.1
2017-Nov-17 00:31N 43°30' W 001°49'510.4
2017-Nov-17 00:01N 43°35' W 001°46'510.5
2017-Nov-16 23:31N 43°40' W 001°43'510.3
2017-Nov-16 23:01N 43°45' W 001°41'510.0
2017-Nov-16 22:30N 43°49' W 001°38'5 9.4
2017-Nov-16 21:59N 43°54' W 001°35'4 9.1
2017-Nov-16 21:30N 43°58' W 001°33'3 5.9
2017-Nov-16 21:00N 44°00' W 001°35'5 9.3
2017-Nov-16 20:30N 43°57' W 001°40'0 0.2
2017-Nov-16 20:01N 43°57' W 001°40'0 0.2
2017-Nov-16 19:31N 43°57' W 001°40'0 0.3
2017-Nov-16 19:01N 43°57' W 001°40'2 3.5
2017-Nov-16 18:31N 43°58' W 001°38'2 4.0
2017-Nov-16 18:01N 43°57' W 001°35'510.5
2017-Nov-16 17:31N 43°52' W 001°38'5 9.9
2017-Nov-16 17:00N 43°48' W 001°40'1010.0
2017-Nov-16 16:01N 43°38' W 001°43'510.0
2017-Nov-16 15:30N 43°33' W 001°44'5 9.8
2017-Nov-16 15:01N 43°28' W 001°46'5 9.6
2017-Nov-16 14:31N 43°24' W 001°47'1 1.0
2017-Nov-16 14:00N 43°23' W 001°48'0 0.0
2017-Nov-16 13:30N 43°23' W 001°48'0 0.0
2017-Nov-16 13:00N 43°23' W 001°48'0 0.0
2017-Nov-16 12:30N 43°23' W 001°48'3 5.5
2017-Nov-16 12:01N 43°26' W 001°46'510.2
2017-Nov-16 11:30N 43°31' W 001°45'510.0
2017-Nov-16 11:01N 43°35' W 001°43'5 9.8
2017-Nov-16 10:31N 43°40' W 001°41'5 9.5
2017-Nov-16 10:00N 43°45' W 001°39'5 9.7
2017-Nov-16 09:31N 43°49' W 001°37'5 9.7
2017-Nov-16 09:00N 43°54' W 001°35'5 9.7
2017-Nov-16 08:31N 43°59' W 001°33'510.0
2017-Nov-16 08:00N 44°03' W 001°31'5 9.6
2017-Nov-16 07:30N 44°08' W 001°28'0 0.3
2017-Nov-16 07:00N 44°08' W 001°28'0 0.2
2017-Nov-16 06:30N 44°08' W 001°28'0 0.3
2017-Nov-16 06:00N 44°08' W 001°28'0 0.9
2017-Nov-16 05:30N 44°08' W 001°29'1 2.8
2017-Nov-16 05:00N 44°09' W 001°29'0 0.3
2017-Nov-16 04:30N 44°09' W 001°29'0 0.4
2017-Nov-16 04:00N 44°09' W 001°28'0 0.4
2017-Nov-16 03:30N 44°10' W 001°28'1 1.6
2017-Nov-16 03:00N 44°09' W 001°29'1 2.4
2017-Nov-16 02:30N 44°09' W 001°31'3 6.9
2017-Nov-16 02:00N 44°05' W 001°33'0 0.1
2017-Nov-16 01:11N 44°05' W 001°33'0 0.2
2017-Nov-16 01:00N 44°05' W 001°33'1 2.2
2017-Nov-16 00:30N 44°06' W 001°33'1 2.8
2017-Nov-16 00:00N 44°07' W 001°32'0 0.2
2017-Nov-15 23:30N 44°07' W 001°31'0 0.0
2017-Nov-15 21:55N 44°07' W 001°31'0 0.2
2017-Nov-15 21:30N 44°07' W 001°31'0 0.1
2017-Nov-15 20:27N 44°07' W 001°31'0 0.2
2017-Nov-15 20:00N 44°07' W 001°32'2 4.0
2017-Nov-15 19:30N 44°06' W 001°33'9 9.7
2017-Nov-15 18:32N 43°58' W 001°40'0 9.7
2017-Nov-15 18:30N 43°58' W 001°40'5 9.5
2017-Nov-15 18:01N 43°54' W 001°45'510.0
2017-Nov-15 17:31N 43°50' W 001°48'5 9.9
2017-Nov-15 17:01N 43°46' W 001°52'5 9.8
2017-Nov-15 16:30N 43°41' W 001°55'510.1
2017-Nov-15 16:01N 43°37' W 001°58'510.2
2017-Nov-15 15:31N 43°32' W 002°02'510.0
2017-Nov-15 15:00N 43°28' W 002°05'510.0
2017-Nov-15 14:31N 43°24' W 002°08'5 9.7
2017-Nov-15 14:01N 43°19' W 002°11'1 2.3
2017-Nov-15 13:31N 43°18' W 002°12'0 0.0
2017-Nov-15 13:00N 43°18' W 002°12'0 0.0
2017-Nov-15 12:31N 43°18' W 002°12'0 0.0
2017-Nov-15 12:00N 43°18' W 002°12'0 0.0
2017-Nov-15 10:29N 43°18' W 002°12'0 0.1
2017-Nov-15 09:43N 43°18' W 002°12'0 0.0
2017-Nov-15 09:29N 43°18' W 002°12'0 0.0
2017-Nov-15 08:40N 43°18' W 002°12'0 0.2
2017-Nov-15 08:26N 43°18' W 002°12'4 8.5
2017-Nov-15 08:00N 43°21' W 002°09'5 9.8
2017-Nov-15 07:30N 43°26' W 002°07'5 9.9
2017-Nov-15 07:01N 43°30' W 002°03'5 9.7
2017-Nov-15 06:31N 43°35' W 002°00'5 9.5
2017-Nov-15 06:01N 43°39' W 001°57'5 9.8
2017-Nov-15 05:30N 43°43' W 001°54'5 9.9
2017-Nov-15 05:01N 43°47' W 001°50'5 9.8
2017-Nov-15 04:31N 43°52' W 001°47'5 9.3
2017-Nov-15 04:01N 43°56' W 001°44'5 9.1
2017-Nov-15 03:29N 44°00' W 001°41'6 9.2
2017-Nov-15 02:48N 44°06' W 001°37'4 9.4
2017-Nov-15 02:22N 44°09' W 001°35'4 9.3
2017-Nov-15 01:58N 44°13' W 001°33'4 8.3
2017-Nov-15 01:30N 44°16' W 001°31'0 0.3
2017-Nov-15 00:53N 44°16' W 001°31'0 0.3
2017-Nov-15 00:30N 44°16' W 001°30'0 0.4
2017-Nov-14 23:45N 44°16' W 001°30'0 0.4
2017-Nov-14 23:29N 44°16' W 001°30'0 0.1
2017-Nov-14 22:58N 44°16' W 001°30'17 5.2
2017-Nov-14 19:38N 43°59' W 001°31'2 9.1
2017-Nov-14 19:23N 43°57' W 001°31'3 8.5
2017-Nov-14 19:00N 43°54' W 001°34'4 8.2
2017-Nov-14 18:31N 43°51' W 001°36'5 9.9
2017-Nov-14 18:01N 43°46' W 001°38'510.2
2017-Nov-14 17:30N 43°41' W 001°39'5 9.9
2017-Nov-14 17:01N 43°36' W 001°41'510.0
2017-Nov-14 16:30N 43°31' W 001°44'5 9.8
2017-Nov-14 16:01N 43°27' W 001°46'4 7.7
2017-Nov-14 15:31N 43°23' W 001°48'0 0.0
2017-Nov-14 15:00N 43°23' W 001°48'0 0.0
2017-Nov-14 14:31N 43°23' W 001°48'1 2.1
2017-Nov-14 14:01N 43°24' W 001°47'611.5
2017-Nov-14 13:31N 43°30' W 001°45'511.0
2017-Nov-14 13:01N 43°35' W 001°45'510.8
2017-Nov-14 12:31N 43°40' W 001°43'510.6
2017-Nov-14 12:01N 43°46' W 001°42'510.7
2017-Nov-14 11:31N 43°51' W 001°40'510.6
2017-Nov-14 11:00N 43°56' W 001°38'1210.6
2017-Nov-14 09:53N 44°08' W 001°34'410.6
2017-Nov-14 09:29N 44°12' W 001°32'1310.7
2017-Nov-14 08:17N 44°24' W 001°29'1 3.2
2017-Nov-14 08:00N 44°25' W 001°28'0 0.2
2017-Nov-14 07:30N 44°25' W 001°28'0 0.2
2017-Nov-14 07:00N 44°25' W 001°28'2 2.8
2017-Nov-14 06:26N 44°25' W 001°26'0 0.3
2017-Nov-14 05:57N 44°25' W 001°26'0 0.1
2017-Nov-14 05:29N 44°25' W 001°26'0 0.1
2017-Nov-14 05:00N 44°25' W 001°26'3 4.5
2017-Nov-14 04:22N 44°28' W 001°25'3 9.2
2017-Nov-14 04:00N 44°31' W 001°25'3 6.3
2017-Nov-14 03:30N 44°28' W 001°26'3 6.5
2017-Nov-14 03:00N 44°24' W 001°26'1 2.2
2017-Nov-14 02:27N 44°23' W 001°26'1 0.6
2017-Nov-14 00:15N 44°24' W 001°25'2 8.8
2017-Nov-13 23:59N 44°26' W 001°24'1 1.8
2017-Nov-13 23:28N 44°27' W 001°24'  
2017-Nov-10 12:32N 43°18' W 002°12'0 0.2
2017-Nov-10 12:30N 43°18' W 002°12'0 0.0
2017-Nov-10 12:00N 43°18' W 002°12'0 0.0
2017-Nov-10 11:28N 43°18' W 002°12'0 0.0
2017-Nov-10 11:00N 43°18' W 002°12'0 0.0
2017-Nov-10 10:30N 43°18' W 002°12'0 0.0
2017-Nov-09 17:43N 43°18' W 002°12'0 0.0
2017-Nov-09 17:30N 43°18' W 002°12'3 5.7
2017-Nov-09 17:00N 43°18' W 002°08'  

Dump ship's entire track history